Time;durP1;ratioP1;P1;durP2;ratioP2;P2;SDS_P1;SDS_P2;PMS_P1;PMS_P2;Temp;Humidity;BMP_temperature;BMP_pressure;BME280_temperature;BME280_humidity;BME280_pressure;Samples;Min_cycle;Max_cycle;Signal;HPM_P1;HPM_P2
2021/05/03 00:00:41;;;;;;;14.57;13.27;;;7.20;99.90;;;;;;5115491;28;20205;-42
2021/05/03 00:03:09;;;;;;;13.32;12.02;;;7.20;99.90;;;;;;5115242;28;20202;-44
2021/05/03 00:05:36;;;;;;;13.63;12.30;;;7.20;99.90;;;;;;5115026;28;20248;-42
2021/05/03 00:08:04;;;;;;;13.68;12.35;;;7.20;99.90;;;;;;5115376;28;20289;-43
2021/05/03 00:10:31;;;;;;;12.85;11.55;;;7.30;99.90;;;;;;5115160;28;20241;-41
2021/05/03 00:12:58;;;;;;;13.98;12.68;;;7.30;99.90;;;;;;5115152;28;20316;-43
2021/05/03 00:15:24;;;;;;;13.65;12.40;;;7.30;99.90;;;;;;5115178;28;20253;-42
2021/05/03 00:17:52;;;;;;;12.80;11.70;;;7.30;99.90;;;;;;5114962;28;20727;-42
2021/05/03 00:20:19;;;;;;;14.25;12.88;;;7.30;99.90;;;;;;5115186;28;20210;-41
2021/05/03 00:22:49;;;;;;;13.35;12.18;;;7.20;99.90;;;;;;5114993;28;20206;-41
2021/05/03 00:25:17;;;;;;;13.27;12.00;;;7.20;99.90;;;;;;5114874;28;20379;-41
2021/05/03 00:27:43;;;;;;;14.52;12.80;;;7.20;99.90;;;;;;5114952;28;20202;-42
2021/05/03 00:30:12;;;;;;;14.18;12.98;;;7.10;99.90;;;;;;5114651;28;20305;-42
2021/05/03 00:32:39;;;;;;;13.82;12.63;;;7.10;99.90;;;;;;5114519;28;20233;-44
2021/05/03 00:35:08;;;;;;;15.05;13.65;;;7.10;99.90;;;;;;5114639;28;20747;-43
2021/05/03 00:37:35;;;;;;;13.65;12.45;;;7.10;99.90;;;;;;5114656;28;20259;-42
2021/05/03 00:40:02;;;;;;;14.65;13.35;;;7.10;99.90;;;;;;5114624;27;20305;-42
2021/05/03 00:42:29;;;;;;;13.63;12.43;;;7.10;99.90;;;;;;5114375;28;20612;-45
2021/05/03 00:44:56;;;;;;;13.70;12.40;;;7.10;99.90;;;;;;5114367;28;20252;-43
2021/05/03 00:47:24;;;;;;;14.02;12.73;;;7.10;99.90;;;;;;5114730;28;20202;-43
2021/05/03 00:49:51;;;;;;;13.68;12.52;;;7.10;99.90;;;;;;5114663;28;20206;-43
2021/05/03 00:52:19;;;;;;;14.30;12.90;;;7.10;99.90;;;;;;5114200;28;20317;-45
2021/05/03 00:54:46;;;;;;;14.20;12.90;;;7.10;99.90;;;;;;5114298;28;20296;-44
2021/05/03 00:57:13;;;;;;;14.15;12.88;;;7.10;99.90;;;;;;5113401;28;20210;-43
2021/05/03 00:59:40;;;;;;;14.82;13.43;;;7.10;99.90;;;;;;5114106;28;20209;-44
2021/05/03 01:02:08;;;;;;;14.10;12.73;;;7.10;99.90;;;;;;5114455;28;20307;-43
2021/05/03 01:04:35;;;;;;;14.90;13.55;;;7.00;99.90;;;;;;5114469;28;20214;-42
2021/05/03 01:07:02;;;;;;;14.38;12.98;;;7.00;99.90;;;;;;5113871;28;20481;-43
2021/05/03 01:09:30;;;;;;;15.00;13.60;;;6.90;99.90;;;;;;5114279;28;20212;-43
2021/05/03 01:11:56;;;;;;;14.50;13.15;;;6.90;99.90;;;;;;5114050;28;20229;-42
2021/05/03 01:14:23;;;;;;;15.15;13.65;;;6.90;99.90;;;;;;5113816;28;20688;-42
2021/05/03 01:16:50;;;;;;;14.48;13.15;;;6.90;99.90;;;;;;5114147;27;20240;-42
2021/05/03 01:19:21;;;;;;;14.60;13.30;;;6.80;99.90;;;;;;5113915;28;20710;-42
2021/05/03 01:21:50;;;;;;;14.73;13.38;;;6.90;99.90;;;;;;5113858;27;20231;-42
2021/05/03 01:24:18;;;;;;;15.93;14.43;;;6.90;99.90;;;;;;5113863;28;20296;-42
2021/05/03 01:26:45;;;;;;;15.88;14.38;;;6.90;99.90;;;;;;5113670;28;20245;-45
2021/05/03 01:29:13;;;;;;;14.35;12.85;;;6.90;99.90;;;;;;5113960;27;20303;-43
2021/05/03 01:31:40;;;;;;;15.85;14.45;;;6.90;99.90;;;;;;5113667;28;20733;-43
2021/05/03 01:34:09;;;;;;;15.13;13.65;;;6.90;99.90;;;;;;5113503;27;20225;-42
2021/05/03 01:36:37;;;;;;;15.10;13.75;;;6.90;99.90;;;;;;5113608;28;20321;-43
2021/05/03 01:39:06;;;;;;;15.65;14.25;;;6.90;99.90;;;;;;5113523;28;20237;-41
2021/05/03 01:41:34;;;;;;;16.48;14.82;;;7.00;99.90;;;;;;5113693;28;20202;-42
2021/05/03 01:44:02;;;;;;;17.05;15.45;;;7.00;99.90;;;;;;5113627;28;20224;-43
2021/05/03 01:46:32;;;;;;;17.13;15.52;;;7.00;99.90;;;;;;5113592;28;20300;-44
2021/05/03 01:49:01;;;;;;;17.98;16.33;;;7.00;99.90;;;;;;5113497;28;20213;-43
2021/05/03 01:51:28;;;;;;;16.58;14.85;;;7.00;99.90;;;;;;5113393;28;20212;-45
2021/05/03 01:53:56;;;;;;;15.57;14.07;;;6.90;99.90;;;;;;5113216;28;20328;-42
2021/05/03 01:56:25;;;;;;;16.48;14.98;;;6.90;99.90;;;;;;5113423;28;20313;-42
2021/05/03 01:58:52;;;;;;;16.70;15.20;;;6.80;99.90;;;;;;5113278;28;20206;-42
2021/05/03 02:01:20;;;;;;;16.08;14.57;;;6.70;99.90;;;;;;5113183;28;20212;-42
2021/05/03 02:03:47;;;;;;;16.10;14.50;;;6.60;99.90;;;;;;5113065;28;20601;-42
2021/05/03 02:06:14;;;;;;;18.23;16.52;;;6.50;99.90;;;;;;5112944;28;20245;-42
2021/05/03 02:08:42;;;;;;;18.63;16.77;;;6.50;99.90;;;;;;5113248;28;20308;-41
2021/05/03 02:11:10;;;;;;;17.90;16.15;;;6.50;99.90;;;;;;5113084;28;20291;-44
2021/05/03 02:13:39;;;;;;;16.45;14.85;;;6.40;99.90;;;;;;5112771;28;20700;-43
2021/05/03 02:16:06;;;;;;;17.35;15.73;;;6.40;99.90;;;;;;5113009;28;20641;-43
2021/05/03 02:18:33;;;;;;;17.92;16.33;;;6.40;99.90;;;;;;5112653;27;20212;-43
2021/05/03 02:21:00;;;;;;;17.08;15.48;;;6.50;99.90;;;;;;5112809;28;20206;-42
2021/05/03 02:23:27;;;;;;;17.40;15.77;;;6.50;99.90;;;;;;5112921;28;20208;-42
2021/05/03 02:25:54;;;;;;;19.50;17.08;;;6.50;99.90;;;;;;5112892;28;20296;-42
2021/05/03 02:28:21;;;;;;;20.13;18.15;;;6.50;99.90;;;;;;5112891;28;20293;-42
2021/05/03 02:30:49;;;;;;;19.17;17.38;;;6.40;99.90;;;;;;5112336;28;20301;-41
2021/05/03 02:33:16;;;;;;;18.60;16.80;;;6.50;99.90;;;;;;5112233;28;20340;-42
2021/05/03 02:35:42;;;;;;;19.73;17.63;;;6.40;99.90;;;;;;5112733;28;20293;-43
2021/05/03 02:38:11;;;;;;;18.67;16.67;;;6.40;99.90;;;;;;5112778;28;20339;-42
2021/05/03 02:40:38;;;;;;;18.38;16.58;;;6.30;99.90;;;;;;5112682;28;20216;-41
2021/05/03 02:43:05;;;;;;;18.65;16.65;;;6.30;99.90;;;;;;5112372;28;20660;-41
2021/05/03 02:45:33;;;;;;;17.48;15.77;;;6.30;99.90;;;;;;5112471;28;20206;-42
2021/05/03 02:48:01;;;;;;;22.58;18.08;;;6.20;99.90;;;;;;5112493;28;20578;-42
2021/05/03 02:50:29;;;;;;;19.55;17.58;;;6.20;99.90;;;;;;5112732;28;20202;-42
2021/05/03 02:52:56;;;;;;;17.60;15.90;;;6.20;99.90;;;;;;5112434;28;20258;-42
2021/05/03 02:55:24;;;;;;;19.65;17.75;;;6.10;99.90;;;;;;5112545;28;20260;-44
2021/05/03 02:57:53;;;;;;;18.00;16.27;;;6.10;99.90;;;;;;5112658;28;20835;-45
2021/05/03 03:00:27;;;;;;;18.75;16.95;;;6.10;99.90;;;;;;5112425;28;20202;-42
2021/05/03 03:02:54;;;;;;;17.08;15.48;;;6.10;99.90;;;;;;5112647;28;20259;-44
2021/05/03 03:05:22;;;;;;;21.17;19.15;;;6.00;99.90;;;;;;5112208;28;20286;-42
2021/05/03 03:07:50;;;;;;;21.42;19.40;;;6.00;99.90;;;;;;5112286;28;20206;-41
2021/05/03 03:10:17;;;;;;;24.73;21.98;;;6.00;99.90;;;;;;5112488;28;20618;-41
2021/05/03 03:12:45;;;;;;;21.73;19.35;;;6.00;99.90;;;;;;5112303;28;20316;-41
2021/05/03 03:15:15;;;;;;;20.05;18.10;;;6.00;99.90;;;;;;5112125;28;20208;-41
2021/05/03 03:17:46;;;;;;;22.55;20.08;;;5.90;99.90;;;;;;5112743;28;20198;-41
2021/05/03 03:20:14;;;;;;;21.67;18.77;;;5.90;99.90;;;;;;5112523;28;20297;-41
2021/05/03 03:22:42;;;;;;;25.30;20.30;;;5.90;99.90;;;;;;5116191;28;20680;-41
2021/05/03 03:25:09;;;;;;;19.58;17.50;;;5.90;99.90;;;;;;5116254;28;20637;-41
2021/05/03 03:27:36;;;;;;;23.15;20.20;;;5.80;99.90;;;;;;5116096;28;20556;-42
2021/05/03 03:30:04;;;;;;;22.55;18.95;;;5.80;99.90;;;;;;5116302;28;20666;-42
2021/05/03 03:32:31;;;;;;;22.42;18.52;;;5.80;99.90;;;;;;5115991;28;20637;-42
2021/05/03 03:34:59;;;;;;;21.73;19.42;;;5.80;99.90;;;;;;5115867;28;20217;-42
2021/05/03 03:37:26;;;;;;;20.33;18.23;;;5.80;99.90;;;;;;5115862;28;20214;-42
2021/05/03 03:39:54;;;;;;;19.27;17.30;;;5.80;99.90;;;;;;5115877;28;20244;-42
2021/05/03 03:42:21;;;;;;;23.10;20.30;;;5.70;99.90;;;;;;5115747;28;20672;-42
2021/05/03 03:44:48;;;;;;;20.17;18.05;;;5.70;99.90;;;;;;5115939;28;20237;-41
2021/05/03 03:47:15;;;;;;;18.88;16.88;;;5.70;99.90;;;;;;5115669;28;20205;-45
2021/05/03 03:49:43;;;;;;;22.55;18.13;;;5.70;99.90;;;;;;5115461;28;20215;-41
2021/05/03 03:52:10;;;;;;;18.17;16.25;;;5.70;99.90;;;;;;5115574;28;20233;-41
2021/05/03 03:54:37;;;;;;;25.33;19.33;;;5.70;99.90;;;;;;5115374;28;20615;-41
2021/05/03 03:57:05;;;;;;;18.13;16.33;;;5.70;99.90;;;;;;5115190;28;20302;-42
2021/05/03 03:59:38;;;;;;;19.67;16.92;;;5.60;99.90;;;;;;5115493;28;20210;-45
2021/05/03 04:02:05;;;;;;;20.02;17.95;;;5.60;99.90;;;;;;5115348;28;20293;-45
2021/05/03 04:04:34;;;;;;;22.92;19.48;;;5.60;99.90;;;;;;5115111;28;20256;-42
2021/05/03 04:07:07;;;;;;;20.77;18.02;;;5.60;99.90;;;;;;5114828;28;20284;-43
2021/05/03 04:09:39;;;;;;;22.33;16.63;;;5.60;99.90;;;;;;5115421;27;20224;-42
2021/05/03 04:26:09;;;;;;;21.60;17.27;;;5.60;99.90;;;;;;5106260;28;20237;-45
2021/05/03 04:28:40;;;;;;;18.55;16.58;;;5.60;99.90;;;;;;5109722;28;20241;-45
2021/05/03 04:31:08;;;;;;;30.33;26.13;;;5.70;99.90;;;;;;5109314;28;20249;-44
2021/05/03 04:33:35;;;;;;;22.42;17.67;;;5.70;99.90;;;;;;5108671;28;20245;-43
2021/05/03 04:36:04;;;;;;;28.10;19.65;;;5.80;99.90;;;;;;5109433;28;20213;-43
2021/05/03 04:38:31;;;;;;;27.27;20.60;;;5.80;99.90;;;;;;5109465;28;20206;-45
2021/05/03 04:40:58;;;;;;;23.65;19.05;;;5.90;99.90;;;;;;5109624;28;20206;-43
2021/05/03 04:43:25;;;;;;;19.25;16.20;;;5.90;99.90;;;;;;5109528;28;20317;-44
2021/05/03 04:45:52;;;;;;;25.98;20.85;;;6.00;99.90;;;;;;5109435;28;20294;-43
2021/05/03 04:48:20;;;;;;;24.33;17.95;;;6.10;99.90;;;;;;5109233;28;20202;-43
2021/05/03 04:50:47;;;;;;;18.58;16.60;;;6.20;99.90;;;;;;5109621;28;20289;-43
2021/05/03 04:53:14;;;;;;;19.23;17.20;;;6.20;99.90;;;;;;5109316;28;20301;-42
2021/05/03 04:55:41;;;;;;;17.80;16.10;;;6.30;99.90;;;;;;5109388;28;20244;-43
2021/05/03 04:58:08;;;;;;;16.35;14.73;;;6.20;99.90;;;;;;5109255;28;20206;-42
2021/05/03 05:00:35;;;;;;;17.38;15.48;;;6.30;99.90;;;;;;5108953;28;20646;-44
2021/05/03 05:03:02;;;;;;;16.35;14.75;;;6.40;99.90;;;;;;5108856;28;20257;-44
2021/05/03 05:05:30;;;;;;;16.75;14.95;;;6.50;99.90;;;;;;5108984;28;20245;-43
2021/05/03 05:07:57;;;;;;;18.67;16.77;;;6.60;99.90;;;;;;5108590;28;20214;-43
2021/05/03 05:10:24;;;;;;;15.63;14.13;;;6.70;99.90;;;;;;5108729;28;20637;-43
2021/05/03 05:12:51;;;;;;;15.30;13.75;;;6.80;99.90;;;;;;5108473;28;20289;-43
2021/05/03 05:15:18;;;;;;;16.10;14.15;;;6.90;99.90;;;;;;5108308;28;20751;-43
2021/05/03 05:17:47;;;;;;;14.52;13.07;;;6.90;99.90;;;;;;5108449;28;20672;-44
2021/05/03 05:20:16;;;;;;;15.07;13.68;;;6.90;99.90;;;;;;5108320;28;20213;-46
2021/05/03 05:22:44;;;;;;;14.05;12.65;;;7.00;99.90;;;;;;5108519;28;20319;-44
2021/05/03 05:25:12;;;;;;;14.43;13.13;;;7.10;99.90;;;;;;5101670;28;20321;-43
2021/05/03 05:27:39;;;;;;;14.43;12.93;;;7.10;99.90;;;;;;5094828;28;20622;-45
2021/05/03 05:30:09;;;;;;;14.20;12.80;;;7.10;99.90;;;;;;5094580;28;20211;-45
2021/05/03 05:32:36;;;;;;;18.08;14.70;;;7.20;99.90;;;;;;5094468;28;20340;-43
2021/05/03 05:35:04;;;;;;;17.55;13.75;;;7.20;99.90;;;;;;5094113;28;20661;-44
2021/05/03 05:37:31;;;;;;;13.32;11.93;;;7.30;99.90;;;;;;5094361;28;20290;-44
2021/05/03 05:39:58;;;;;;;14.70;13.32;;;7.40;99.90;;;;;;5094731;28;20213;-43
2021/05/03 05:42:25;;;;;;;15.57;14.00;;;7.40;99.90;;;;;;5094325;28;20210;-44
2021/05/03 05:44:52;;;;;;;14.15;12.80;;;7.50;99.90;;;;;;5094055;28;20249;-43
2021/05/03 05:47:19;;;;;;;14.75;13.18;;;7.60;99.90;;;;;;5095039;28;20217;-44
2021/05/03 05:49:46;;;;;;;13.73;12.52;;;7.70;99.90;;;;;;5094455;28;20207;-43
2021/05/03 05:52:13;;;;;;;13.23;12.02;;;7.70;99.90;;;;;;5094139;28;20293;-43
2021/05/03 05:54:40;;;;;;;13.65;12.35;;;7.70;99.90;;;;;;5094353;28;20199;-43
2021/05/03 05:57:08;;;;;;;14.68;13.30;;;7.80;99.90;;;;;;5094204;28;20297;-43
2021/05/03 05:59:36;;;;;;;15.02;12.93;;;7.90;99.90;;;;;;5094132;28;20210;-43
2021/05/03 06:02:03;;;;;;;14.40;13.00;;;8.00;99.90;;;;;;5094238;28;20607;-43
2021/05/03 06:04:32;;;;;;;13.85;12.55;;;8.00;99.90;;;;;;5093805;28;20223;-44
2021/05/03 06:06:59;;;;;;;16.33;13.48;;;8.20;99.90;;;;;;5093633;28;20702;-45
2021/05/03 06:09:46;;;;;;;12.98;11.77;;;8.20;99.90;;;;;;5093984;28;20587;-46
2021/05/03 06:12:14;;;;;;;14.00;12.70;;;8.30;99.90;;;;;;5093866;28;20293;-44
2021/05/03 06:14:41;;;;;;;12.77;11.68;;;8.40;99.90;;;;;;5093766;28;20265;-43
2021/05/03 06:17:09;;;;;;;12.65;11.35;;;8.50;99.90;;;;;;5093898;28;20365;-44
2021/05/03 06:19:36;;;;;;;12.45;11.32;;;8.70;99.90;;;;;;5093781;28;20206;-44
2021/05/03 06:22:03;;;;;;;13.02;11.80;;;8.80;99.90;;;;;;5093558;28;20256;-48
2021/05/03 06:24:30;;;;;;;13.93;12.63;;;8.90;99.90;;;;;;5093588;28;20717;-46
2021/05/03 06:26:57;;;;;;;13.82;12.30;;;9.00;99.90;;;;;;5093926;28;20234;-45
2021/05/03 06:29:26;;;;;;;12.80;11.70;;;9.10;99.90;;;;;;5093626;28;20213;-46
2021/05/03 06:31:54;;;;;;;13.70;12.50;;;9.10;99.90;;;;;;5093509;28;20653;-45
2021/05/03 06:34:23;;;;;;;13.63;12.35;;;9.10;99.90;;;;;;5093490;28;20207;-44
2021/05/03 06:36:50;;;;;;;14.32;13.02;;;9.10;99.90;;;;;;5092586;28;20237;-45
2021/05/03 06:39:16;;;;;;;13.30;12.00;;;9.20;99.90;;;;;;5093317;28;20297;-43
2021/05/03 06:41:45;;;;;;;12.65;11.45;;;9.20;99.90;;;;;;5093213;28;20691;-46
2021/05/03 06:44:12;;;;;;;13.48;12.15;;;9.30;99.90;;;;;;5093381;28;20345;-46
2021/05/03 06:46:40;;;;;;;13.35;12.15;;;9.40;99.90;;;;;;5093276;28;20242;-44
2021/05/03 06:49:07;;;;;;;12.27;11.07;;;9.50;99.90;;;;;;5093160;28;20210;-44
2021/05/03 06:51:34;;;;;;;12.90;11.70;;;9.60;99.90;;;;;;5092993;28;20231;-44
2021/05/03 06:54:01;;;;;;;13.60;12.18;;;9.70;99.90;;;;;;5093050;28;20306;-44
2021/05/03 06:56:28;;;;;;;12.10;10.82;;;9.70;99.90;;;;;;5093246;28;20305;-46
2021/05/03 06:58:55;;;;;;;12.02;10.77;;;9.70;99.90;;;;;;5093096;28;20221;-46
2021/05/03 07:01:22;;;;;;;12.38;11.25;;;9.70;99.90;;;;;;5093142;28;20206;-46
2021/05/03 07:03:50;;;;;;;12.20;11.10;;;9.70;99.90;;;;;;5092893;28;20222;-44
2021/05/03 07:06:17;;;;;;;12.65;11.35;;;9.80;99.90;;;;;;5092762;28;20267;-49
2021/05/03 07:08:44;;;;;;;13.55;12.15;;;9.80;99.90;;;;;;5093143;28;20629;-45
2021/05/03 07:11:14;;;;;;;12.50;11.20;;;9.90;99.90;;;;;;5092691;28;20613;-46
2021/05/03 07:13:42;;;;;;;13.45;12.05;;;10.00;99.90;;;;;;5092317;28;20321;-47
2021/05/03 07:16:09;;;;;;;12.00;10.85;;;10.00;99.90;;;;;;5092390;28;20240;-46
2021/05/03 07:18:36;;;;;;;11.88;10.77;;;10.10;99.90;;;;;;5092315;28;20221;-47
2021/05/03 07:21:05;;;;;;;12.00;10.80;;;10.10;99.90;;;;;;5092160;28;20347;-47
2021/05/03 07:23:32;;;;;;;12.85;11.50;;;10.10;99.90;;;;;;5092439;28;20309;-45
2021/05/03 07:26:05;;;;;;;11.88;10.70;;;10.20;99.90;;;;;;5092254;28;20260;-45
2021/05/03 07:28:32;;;;;;;12.13;11.02;;;10.10;99.90;;;;;;5092237;28;20207;-45
2021/05/03 07:30:59;;;;;;;13.18;10.35;;;10.10;99.90;;;;;;5092360;28;20234;-46
2021/05/03 07:33:26;;;;;;;12.50;11.20;;;10.10;99.90;;;;;;5092094;28;20214;-43
2021/05/03 07:35:54;;;;;;;11.68;10.63;;;10.20;99.90;;;;;;5092176;28;20664;-44
2021/05/03 07:38:22;;;;;;;11.95;10.18;;;10.40;99.90;;;;;;5092247;28;20207;-40
2021/05/03 07:40:49;;;;;;;13.82;10.75;;;10.50;99.90;;;;;;5092208;28;20231;-40
2021/05/03 07:43:16;;;;;;;10.25;9.35;;;10.60;99.90;;;;;;5091847;28;20249;-42
2021/05/03 07:45:44;;;;;;;10.95;9.85;;;10.70;99.60;;;;;;5091811;28;20246;-42
2021/05/03 07:48:11;;;;;;;11.23;10.07;;;10.70;99.40;;;;;;5091664;28;20660;-44
2021/05/03 07:50:38;;;;;;;10.40;9.40;;;10.80;99.00;;;;;;5092152;28;20285;-44
2021/05/03 07:53:05;;;;;;;10.77;9.52;;;10.80;99.20;;;;;;5092077;28;20253;-43
2021/05/03 07:55:33;;;;;;;12.05;10.00;;;11.00;98.90;;;;;;5092145;28;20242;-40
2021/05/03 07:58:01;;;;;;;12.80;11.20;;;11.00;98.60;;;;;;5092049;28;20207;-41
2021/05/03 08:00:29;;;;;;;11.05;10.05;;;10.90;98.40;;;;;;5091911;28;20246;-42
2021/05/03 08:02:56;;;;;;;12.23;10.93;;;10.70;98.30;;;;;;5092011;28;20289;-48
2021/05/03 08:05:24;;;;;;;10.63;9.70;;;10.70;98.50;;;;;;5091822;28;20231;-47
2021/05/03 08:07:51;;;;;;;13.18;11.98;;;10.70;98.20;;;;;;5091960;28;20238;-45
2021/05/03 08:10:18;;;;;;;11.85;10.55;;;10.70;98.30;;;;;;5091783;28;20386;-44
2021/05/03 08:12:46;;;;;;;11.30;10.27;;;10.80;98.40;;;;;;5091472;28;20298;-45
2021/05/03 08:15:15;;;;;;;10.75;9.85;;;11.10;98.10;;;;;;5091954;28;20266;-44
2021/05/03 08:17:44;;;;;;;9.70;8.80;;;11.30;97.50;;;;;;5091822;28;20234;-46
2021/05/03 08:20:12;;;;;;;9.63;8.73;;;11.40;97.00;;;;;;5091403;28;20636;-42
2021/05/03 08:22:40;;;;;;;14.40;8.90;;;11.30;96.40;;;;;;5091436;28;20210;-47
2021/05/03 08:25:08;;;;;;;10.18;8.07;;;11.40;96.70;;;;;;5091426;28;20226;-43
2021/05/03 08:27:35;;;;;;;10.75;9.75;;;11.70;95.70;;;;;;5091537;28;20289;-44
2021/05/03 08:30:05;;;;;;;8.65;7.75;;;12.00;95.50;;;;;;5091427;28;20242;-42
2021/05/03 08:32:32;;;;;;;8.95;8.15;;;12.50;94.40;;;;;;5091638;28;20211;-43
2021/05/03 08:35:00;;;;;;;9.10;8.30;;;12.80;93.60;;;;;;5091467;28;20331;-45
2021/05/03 08:37:27;;;;;;;7.78;7.07;;;13.00;93.20;;;;;;5091277;28;20217;-44
2021/05/03 08:39:54;;;;;;;10.07;7.40;;;13.30;92.60;;;;;;5091103;28;20207;-44
2021/05/03 08:42:21;;;;;;;6.95;6.25;;;13.50;91.90;;;;;;5091441;28;20234;-44
2021/05/03 08:44:51;;;;;;;7.63;6.88;;;13.70;91.10;;;;;;5091283;28;20222;-45
2021/05/03 08:47:20;;;;;;;8.93;7.95;;;13.70;90.80;;;;;;5091278;28;20237;-46
2021/05/03 08:49:54;;;;;;;7.85;7.13;;;13.60;90.60;;;;;;5090993;28;20298;-48
2021/05/03 08:52:25;;;;;;;8.02;5.70;;;13.60;90.70;;;;;;5091117;28;20207;-43
2021/05/03 08:54:53;;;;;;;7.35;6.60;;;13.60;89.40;;;;;;5091351;28;20409;-45
2021/05/03 08:57:19;;;;;;;6.82;6.22;;;13.50;86.80;;;;;;5091404;28;20213;-45
2021/05/03 08:59:47;;;;;;;6.10;5.60;;;13.10;87.30;;;;;;5091575;28;20280;-44
2021/05/03 09:02:15;;;;;;;6.60;6.00;;;12.70;88.30;;;;;;5094949;28;20260;-41
2021/05/03 09:04:45;;;;;;;6.57;5.93;;;12.50;88.60;;;;;;5094884;28;20219;-42
2021/05/03 09:07:14;;;;;;;6.65;6.05;;;12.50;87.50;;;;;;5094970;28;20392;-45
2021/05/03 09:09:43;;;;;;;5.80;5.25;;;12.70;86.20;;;;;;5094913;28;20645;-44
2021/05/03 09:12:12;;;;;;;5.85;5.30;;;12.90;84.20;;;;;;5095274;28;20248;-44
2021/05/03 09:14:53;;;;;;;5.55;5.15;;;13.00;83.40;;;;;;5094802;28;20227;-45
2021/05/03 09:17:38;;;;;;;7.57;5.40;;;12.80;79.20;;;;;;5094706;28;20226;-46
2021/05/03 09:20:09;;;;;;;8.52;5.85;;;12.70;81.60;;;;;;5094868;28;20210;-45
2021/05/03 09:22:41;;;;;;;8.80;6.32;;;12.80;82.90;;;;;;5094957;28;20234;-45
2021/05/03 09:25:19;;;;;;;6.32;5.65;;;12.90;82.30;;;;;;5094971;28;20584;-43
2021/05/03 09:27:47;;;;;;;9.57;6.47;;;13.10;81.40;;;;;;5095003;28;20578;-45
2021/05/03 09:30:15;;;;;;;7.60;6.43;;;13.30;81.40;;;;;;5094745;28;20275;-44
2021/05/03 09:32:42;;;;;;;7.40;6.75;;;13.40;81.10;;;;;;5094719;28;20252;-45
2021/05/03 09:35:10;;;;;;;5.82;5.32;;;13.50;80.70;;;;;;5094622;28;20763;-49
2021/05/03 09:37:39;;;;;;;7.13;6.50;;;13.70;80.60;;;;;;5094864;28;20290;-45
2021/05/03 09:40:09;;;;;;;5.45;5.05;;;13.90;79.00;;;;;;5094732;28;20202;-44
2021/05/03 09:42:53;;;;;;;6.47;5.88;;;13.80;78.80;;;;;;5094593;28;20217;-43
2021/05/03 09:45:22;;;;;;;11.48;5.53;;;13.80;78.20;;;;;;5094205;28;20314;-46
2021/05/03 09:47:51;;;;;;;8.73;5.80;;;13.70;78.90;;;;;;5094524;28;20229;-43
2021/05/03 09:50:21;;;;;;;6.22;5.15;;;13.50;79.00;;;;;;5094344;28;20290;-44
2021/05/03 09:53:02;;;;;;;11.68;6.40;;;13.40;79.70;;;;;;5094368;28;20305;-48
2021/05/03 09:55:35;;;;;;;7.35;6.65;;;13.20;81.50;;;;;;5094203;28;20224;-46
2021/05/03 09:58:13;;;;;;;6.72;6.18;;;13.10;82.70;;;;;;5094409;28;20289;-44
2021/05/03 10:00:41;;;;;;;6.93;5.55;;;13.10;84.00;;;;;;5094085;28;20302;-42
2021/05/03 10:03:36;;;;;;;6.88;6.22;;;13.20;83.60;;;;;;5094129;28;20724;-42
2021/05/03 10:06:06;;;;;;;6.35;5.75;;;13.30;83.90;;;;;;5094278;28;20207;-42
2021/05/03 10:08:33;;;;;;;6.88;6.15;;;13.20;84.90;;;;;;5094136;28;20245;-43
2021/05/03 10:11:04;;;;;;;8.70;6.53;;;13.00;85.50;;;;;;5093961;28;20289;-47
2021/05/03 10:13:33;;;;;;;9.90;6.53;;;12.80;85.70;;;;;;5093846;28;20234;-43
2021/05/03 10:16:01;;;;;;;11.07;5.82;;;12.60;85.40;;;;;;5093354;28;20305;-43
2021/05/03 10:18:31;;;;;;;6.95;6.30;;;12.50;84.20;;;;;;5093994;28;20207;-43
2021/05/03 10:20:59;;;;;;;8.63;5.10;;;12.50;84.30;;;;;;5093886;28;20599;-44
2021/05/03 10:23:29;;;;;;;5.28;4.78;;;12.70;82.90;;;;;;5093843;28;20211;-44
2021/05/03 10:25:57;;;;;;;6.45;5.65;;;12.90;81.40;;;;;;5093660;28;20704;-44
2021/05/03 10:28:25;;;;;;;4.80;4.40;;;13.00;79.40;;;;;;5093564;28;20272;-43
2021/05/03 10:30:56;;;;;;;5.78;5.18;;;13.20;78.70;;;;;;5093352;28;20253;-44
2021/05/03 10:33:34;;;;;;;5.63;4.32;;;13.40;78.00;;;;;;5093806;28;20302;-45
2021/05/03 10:36:01;;;;;;;6.80;5.40;;;13.70;75.50;;;;;;5093783;28;20206;-45
2021/05/03 10:38:36;;;;;;;6.22;5.10;;;13.70;75.90;;;;;;5093627;28;20203;-45
2021/05/03 10:41:19;;;;;;;5.10;4.60;;;13.70;75.80;;;;;;5093287;28;20241;-46
2021/05/03 10:43:46;;;;;;;5.75;5.25;;;13.50;76.20;;;;;;5093004;28;20214;-44
2021/05/03 10:49:37;;;;;;;5.43;4.80;;;13.40;75.40;;;;;;5093161;28;20312;-45
2021/05/03 10:52:06;;;;;;;4.90;4.50;;;13.40;74.90;;;;;;5093123;28;20245;-45
2021/05/03 10:54:39;;;;;;;4.90;4.50;;;13.40;75.40;;;;;;5092902;28;20322;-43
2021/05/03 10:57:08;;;;;;;5.55;4.70;;;13.50;74.60;;;;;;5092829;28;20253;-43
2021/05/03 10:59:43;;;;;;;7.70;5.30;;;13.70;74.20;;;;;;5092826;28;20311;-47
2021/05/03 11:02:13;;;;;;;6.85;5.32;;;14.00;73.10;;;;;;5092694;28;20305;-47
2021/05/03 11:05:10;;;;;;;4.78;4.38;;;14.20;73.50;;;;;;5092308;28;20701;-46
2021/05/03 11:08:30;;;;;;;6.15;4.40;;;14.40;70.20;;;;;;5092641;28;20250;-43
2021/05/03 11:11:21;;;;;;;5.82;5.20;;;14.30;70.30;;;;;;5092514;28;20301;-45
2021/05/03 11:14:02;;;;;;;7.57;4.90;;;14.10;70.90;;;;;;5092343;28;20307;-46
2021/05/03 11:16:52;;;;;;;5.63;4.72;;;14.10;71.80;;;;;;5093022;28;20289;-47
2021/05/03 11:19:57;;;;;;;6.80;4.90;;;14.10;70.40;;;;;;5092669;28;20225;-43
2021/05/03 11:22:27;;;;;;;5.13;4.72;;;13.90;71.30;;;;;;5091860;28;20264;-47
2021/05/03 11:24:57;;;;;;;6.72;4.82;;;13.70;72.00;;;;;;5092504;28;20284;-44
2021/05/03 11:27:39;;;;;;;4.93;4.53;;;13.60;72.20;;;;;;5092540;28;20217;-46
2021/05/03 11:30:09;;;;;;;9.10;4.57;;;13.30;71.70;;;;;;5092535;28;20285;-43
2021/05/03 11:32:38;;;;;;;8.43;5.15;;;13.10;73.20;;;;;;5092399;28;20234;-43
2021/05/03 11:35:16;;;;;;;9.07;6.22;;;13.10;73.70;;;;;;5092230;28;20207;-44
2021/05/03 11:37:48;;;;;;;5.88;5.28;;;13.20;73.60;;;;;;5092567;28;20202;-43
2021/05/03 11:40:27;;;;;;;5.10;4.60;;;13.40;72.80;;;;;;5092361;28;20302;-44
2021/05/03 11:43:13;;;;;;;6.22;4.65;;;13.50;71.90;;;;;;5091822;28;20217;-42
2021/05/03 11:45:40;;;;;;;4.10;3.72;;;13.60;70.40;;;;;;5091795;28;20309;-42
2021/05/03 11:48:07;;;;;;;8.38;5.15;;;13.70;70.50;;;;;;5091843;28;20238;-45
2021/05/03 11:50:34;;;;;;;7.00;4.65;;;13.90;69.10;;;;;;5092129;28;20264;-44
2021/05/03 11:53:02;;;;;;;17.67;5.03;;;14.00;68.40;;;;;;5092038;28;20239;-50
2021/05/03 11:55:29;;;;;;;4.00;3.60;;;14.00;68.00;;;;;;5092115;28;20209;-44
2021/05/03 11:57:58;;;;;;;5.57;4.60;;;14.00;68.30;;;;;;5091718;28;20297;-43
2021/05/03 12:00:27;;;;;;;6.32;4.72;;;14.10;68.20;;;;;;5091922;28;20204;-44
2021/05/03 12:03:02;;;;;;;7.45;4.57;;;14.20;68.10;;;;;;5091741;28;20298;-44
2021/05/03 12:05:31;;;;;;;12.52;4.95;;;14.40;66.70;;;;;;5091653;28;20222;-45
2021/05/03 12:07:58;;;;;;;4.85;4.45;;;14.70;66.10;;;;;;5091741;28;20230;-44
2021/05/03 12:10:25;;;;;;;4.95;4.43;;;15.00;65.80;;;;;;5091654;28;20289;-43
2021/05/03 12:12:54;;;;;;;14.00;5.07;;;15.20;64.50;;;;;;5091566;28;20657;-43
2021/05/03 12:15:25;;;;;;;5.20;4.68;;;15.30;64.20;;;;;;5091680;28;20289;-43
2021/05/03 12:17:53;;;;;;;5.35;4.85;;;15.20;64.30;;;;;;5091849;28;20230;-43
2021/05/03 12:20:21;;;;;;;6.57;4.30;;;15.10;64.30;;;;;;5091659;28;20289;-44
2021/05/03 12:22:53;;;;;;;5.47;5.00;;;15.10;65.20;;;;;;5091545;28;20607;-44
2021/05/03 12:25:20;;;;;;;5.07;4.60;;;14.90;64.30;;;;;;5091519;28;20321;-44
2021/05/03 12:27:47;;;;;;;6.50;5.88;;;14.90;64.80;;;;;;5091577;28;20214;-44
2021/05/03 12:30:15;;;;;;;5.47;5.07;;;15.00;64.60;;;;;;5091494;28;20306;-43
2021/05/03 12:32:43;;;;;;;5.45;4.88;;;15.10;65.00;;;;;;5091414;28;20470;-44
2021/05/03 12:35:13;;;;;;;4.55;4.15;;;15.20;64.20;;;;;;5092714;28;20203;-44
2021/05/03 12:37:40;;;;;;;6.45;5.32;;;15.00;64.60;;;;;;5095451;28;20224;-43
2021/05/03 12:40:11;;;;;;;4.43;4.07;;;14.90;65.40;;;;;;5095525;28;20314;-42
2021/05/03 12:42:43;;;;;;;4.47;4.13;;;15.10;64.30;;;;;;5095375;28;20252;-42
2021/05/03 12:45:22;;;;;;;6.30;5.22;;;15.20;62.70;;;;;;5094995;28;20254;-42
2021/05/03 12:48:00;;;;;;;5.18;4.78;;;15.10;62.90;;;;;;5095194;28;20215;-42
2021/05/03 12:51:09;;;;;;;5.90;5.30;;;15.10;62.70;;;;;;5095314;28;20241;-47
2021/05/03 12:53:53;;;;;;;5.38;4.68;;;15.10;62.60;;;;;;5095243;28;20297;-45
2021/05/03 12:56:26;;;;;;;6.95;5.20;;;15.20;62.30;;;;;;5095201;28;20563;-44
2021/05/03 12:59:00;;;;;;;8.98;5.60;;;15.30;61.60;;;;;;5095180;28;20301;-44
2021/05/03 13:01:36;;;;;;;4.00;3.55;;;15.40;59.80;;;;;;5095330;28;20333;-43
2021/05/03 13:04:16;;;;;;;3.60;3.30;;;15.40;58.70;;;;;;5095037;28;20218;-42
2021/05/03 13:22:29;;;;;;;8.07;5.22;;;15.60;57.60;;;;;;5094722;28;20293;-43
2021/05/03 13:29:42;;;;;;;4.00;3.60;;;16.40;54.90;;;;;;5094545;28;20202;-46